Truxton, Missouri
Current Conditions -  °F | °C
As of 1:55 PM on Thursday 30 Oct 2014 (Local Time) from KFYG Reporting Station
Overcast Overcast  
Wind Chill: 57°   Ceiling: 7000
Heat Index: 57°   Visibility: 10mi
Dew Point: 39°   Wind: 5mph
Humidity: 51%   Direction: 210°SSW
Pressure: 30.03"   Gusts: NA
Location:  39°N, 91.24°W
Report Text: KFYG 301855Z AUTO 21004KT 10SM OVC070 14/04 A3003 RMK AO2
Loading
Personal Weather Stations






























Interactive Weather Map New forecast layout! Learn more

10-Day Weather Forecast

Advertisements
Track Severe Weather on mobile